Urdampilleta, Argentina
Current Conditions -  °F | °C
As of 6:30 AM on Friday 24 Oct 2014 (Local Time) from SAEZ Reporting Station
Haze Haze  
Wind Chill: 20°   Ceiling: 500
Heat Index: 20°   Visibility: 1.8mi
Dew Point: 19°   Wind: 9mph
Humidity: 94%   Direction: 110°ESE
Pressure: 30"   Gusts: NA
Location:  36.43°S, 61.43°W
Report Text: SAEZ 240930Z 11008KT 3000 BR OVC005 20/19 Q1016
Loading
Personal Weather Stations






























Interactive Weather Map
Tropical Storm Tracking
New forecast layout! Learn more

10-Day Weather Forecast

Advertisements
Track Severe Weather on mobile